sensor_id;sensor_type;location;lat;lon;timestamp;pressure;altitude;pressure_sealevel;temperature;humidity
41260;BME280;26993;48.958;9.330;2022-09-12T00:01:31;98616.50;;;12.21;100.00
41260;BME280;26993;48.958;9.330;2022-09-12T00:04:18;98608.69;;;12.27;100.00
41260;BME280;26993;48.958;9.330;2022-09-12T00:07:05;98599.28;;;12.23;100.00
41260;BME280;26993;48.958;9.330;2022-09-12T00:09:51;98604.41;;;12.21;100.00
41260;BME280;26993;48.958;9.330;2022-09-12T00:12:40;98603.59;;;12.16;100.00
41260;BME280;26993;48.958;9.330;2022-09-12T00:15:26;98601.06;;;12.13;100.00
41260;BME280;26993;48.958;9.330;2022-09-12T00:18:15;98601.91;;;12.09;100.00
41260;BME280;26993;48.958;9.330;2022-09-12T00:21:03;98600.19;;;12.08;100.00
41260;BME280;26993;48.958;9.330;2022-09-12T00:23:50;98597.63;;;12.10;100.00
41260;BME280;26993;48.958;9.330;2022-09-12T00:26:37;98595.03;;;12.08;100.00
41260;BME280;26993;48.958;9.330;2022-09-12T00:29:25;98598.56;;;11.98;100.00
41260;BME280;26993;48.958;9.330;2022-09-12T00:32:11;98591.66;;;11.90;100.00
41260;BME280;26993;48.958;9.330;2022-09-12T00:34:58;98601.16;;;11.84;100.00
41260;BME280;26993;48.958;9.330;2022-09-12T00:37:47;98600.28;;;11.82;100.00
41260;BME280;26993;48.958;9.330;2022-09-12T00:40:33;98602.94;;;11.72;100.00
41260;BME280;26993;48.958;9.330;2022-09-12T00:43:35;98605.50;;;11.72;100.00
41260;BME280;26993;48.958;9.330;2022-09-12T00:46:29;98602.19;;;11.30;100.00
41260;BME280;26993;48.958;9.330;2022-09-12T00:49:21;98603.09;;;11.09;100.00
41260;BME280;26993;48.958;9.330;2022-09-12T00:52:11;98600.50;;;11.21;100.00
41260;BME280;26993;48.958;9.330;2022-09-12T00:55:02;98607.31;;;11.39;100.00
41260;BME280;26993;48.958;9.330;2022-09-12T00:57:53;98586.69;;;11.44;100.00
41260;BME280;26993;48.958;9.330;2022-09-12T01:00:42;98584.09;;;11.39;100.00
41260;BME280;26993;48.958;9.330;2022-09-12T01:03:30;98580.66;;;11.40;100.00
41260;BME280;26993;48.958;9.330;2022-09-12T01:06:20;98578.06;;;11.43;100.00
41260;BME280;26993;48.958;9.330;2022-09-12T01:09:11;98582.41;;;11.27;100.00
41260;BME280;26993;48.958;9.330;2022-09-12T01:12:01;98583.28;;;11.28;100.00
41260;BME280;26993;48.958;9.330;2022-09-12T01:14:48;98578.09;;;11.40;100.00
41260;BME280;26993;48.958;9.330;2022-09-12T01:17:41;98570.41;;;11.17;100.00
41260;BME280;26993;48.958;9.330;2022-09-12T01:20:46;98572.97;;;11.17;100.00
41260;BME280;26993;48.958;9.330;2022-09-12T01:27:31;98569.56;;;11.15;100.00
41260;BME280;26993;48.958;9.330;2022-09-12T01:30:30;98560.09;;;11.19;100.00
41260;BME280;26993;48.958;9.330;2022-09-12T01:33:37;98565.28;;;11.00;100.00
41260;BME280;26993;48.958;9.330;2022-09-12T01:36:37;98558.41;;;11.01;100.00
41260;BME280;26993;48.958;9.330;2022-09-12T01:39:30;98562.72;;;10.99;100.00
41260;BME280;26993;48.958;9.330;2022-09-12T01:42:24;98566.16;;;11.01;100.00
41260;BME280;26993;48.958;9.330;2022-09-12T01:45:19;98564.41;;;11.03;100.00
41260;BME280;26993;48.958;9.330;2022-09-12T01:48:13;98568.69;;;11.08;100.00
41260;BME280;26993;48.958;9.330;2022-09-12T01:51:06;98567.00;;;11.06;100.00
41260;BME280;26993;48.958;9.330;2022-09-12T01:53:59;98565.28;;;10.97;100.00
41260;BME280;26993;48.958;9.330;2022-09-12T01:56:52;98555.81;;;11.02;100.00
41260;BME280;26993;48.958;9.330;2022-09-12T01:59:44;98559.22;;;11.17;100.00
41260;BME280;26993;48.958;9.330;2022-09-12T02:02:38;98554.97;;;11.05;100.00
41260;BME280;26993;48.958;9.330;2022-09-12T02:05:30;98550.69;;;10.98;100.00
41260;BME280;26993;48.958;9.330;2022-09-12T02:08:19;98553.25;;;11.04;100.00
41260;BME280;26993;48.958;9.330;2022-09-12T02:11:09;98548.97;;;10.90;100.00
41260;BME280;26993;48.958;9.330;2022-09-12T02:14:00;98555.84;;;10.81;100.00
41260;BME280;26993;48.958;9.330;2022-09-12T02:16:50;98544.69;;;10.74;100.00
41260;BME280;26993;48.958;9.330;2022-09-12T02:19:41;98533.53;;;10.58;100.00
41260;BME280;26993;48.958;9.330;2022-09-12T02:22:32;98532.69;;;10.74;100.00
41260;BME280;26993;48.958;9.330;2022-09-12T02:25:22;98530.97;;;10.73;100.00
41260;BME280;26993;48.958;9.330;2022-09-12T02:28:13;98521.53;;;10.61;100.00
41260;BME280;26993;48.958;9.330;2022-09-12T02:31:07;98528.38;;;10.73;100.00
41260;BME280;26993;48.958;9.330;2022-09-12T02:34:08;98524.91;;;10.93;100.00
41260;BME280;26993;48.958;9.330;2022-09-12T02:37:02;98524.03;;;11.00;100.00
41260;BME280;26993;48.958;9.330;2022-09-12T02:39:53;98521.44;;;11.14;100.00
41260;BME280;26993;48.958;9.330;2022-09-12T02:42:41;98517.06;;;11.38;100.00
41260;BME280;26993;48.958;9.330;2022-09-12T02:45:28;98520.53;;;11.27;100.00
41260;BME280;26993;48.958;9.330;2022-09-12T02:48:19;98517.09;;;11.19;100.00
41260;BME280;26993;48.958;9.330;2022-09-12T02:51:07;98510.22;;;11.18;100.00
41260;BME280;26993;48.958;9.330;2022-09-12T02:53:54;98511.97;;;11.13;100.00
41260;BME280;26993;48.958;9.330;2022-09-12T02:56:44;98509.34;;;11.21;100.00
41260;BME280;26993;48.958;9.330;2022-09-12T02:59:31;98510.22;;;11.23;100.00
41260;BME280;26993;48.958;9.330;2022-09-12T03:02:25;98511.94;;;11.27;100.00
41260;BME280;26993;48.958;9.330;2022-09-12T03:05:23;98505.94;;;11.19;100.00
41260;BME280;26993;48.958;9.330;2022-09-12T03:08:20;98500.78;;;11.19;100.00
41260;BME280;26993;48.958;9.330;2022-09-12T03:11:17;98505.91;;;11.25;100.00
41260;BME280;26993;48.958;9.330;2022-09-12T03:14:20;98508.53;;;11.16;100.00
41260;BME280;26993;48.958;9.330;2022-09-12T03:17:15;98507.69;;;11.15;100.00
41260;BME280;26993;48.958;9.330;2022-09-12T03:20:09;98507.72;;;10.90;100.00
41260;BME280;26993;48.958;9.330;2022-09-12T03:23:00;98506.88;;;10.82;100.00
41260;BME280;26993;48.958;9.330;2022-09-12T03:25:54;98512.06;;;10.68;100.00
41260;BME280;26993;48.958;9.330;2022-09-12T03:28:43;98516.34;;;10.83;100.00
41260;BME280;26993;48.958;9.330;2022-09-12T03:31:32;98513.75;;;10.80;100.00
41260;BME280;26993;48.958;9.330;2022-09-12T03:34:19;98506.94;;;10.68;100.00
41260;BME280;26993;48.958;9.330;2022-09-12T03:37:06;98512.91;;;10.66;100.00
41260;BME280;26993;48.958;9.330;2022-09-12T03:39:53;98508.63;;;10.68;100.00
41260;BME280;26993;48.958;9.330;2022-09-12T03:42:39;98512.91;;;10.78;100.00
41260;BME280;26993;48.958;9.330;2022-09-12T03:45:26;98518.94;;;10.71;100.00
41260;BME280;26993;48.958;9.330;2022-09-12T03:48:14;98519.78;;;10.79;100.00
41260;BME280;26993;48.958;9.330;2022-09-12T03:51:01;98515.50;;;10.62;100.00
41260;BME280;26993;48.958;9.330;2022-09-12T03:53:48;98518.94;;;10.61;100.00
41260;BME280;26993;48.958;9.330;2022-09-12T03:56:35;98516.34;;;10.58;100.00
41260;BME280;26993;48.958;9.330;2022-09-12T03:59:22;98516.38;;;10.41;100.00
41260;BME280;26993;48.958;9.330;2022-09-12T04:02:09;98519.78;;;10.40;100.00
41260;BME280;26993;48.958;9.330;2022-09-12T04:04:58;98517.25;;;10.42;100.00
41260;BME280;26993;48.958;9.330;2022-09-12T04:07:45;98515.50;;;10.39;100.00
41260;BME280;26993;48.958;9.330;2022-09-12T04:10:32;98515.50;;;10.48;100.00
41260;BME280;26993;48.958;9.330;2022-09-12T04:13:18;98509.50;;;10.51;100.00
41260;BME280;26993;48.958;9.330;2022-09-12T04:16:06;98506.06;;;10.41;100.00
41260;BME280;26993;48.958;9.330;2022-09-12T04:18:53;98511.19;;;10.29;100.00
41260;BME280;26993;48.958;9.330;2022-09-12T04:21:41;98509.47;;;10.25;100.00
41260;BME280;26993;48.958;9.330;2022-09-12T04:24:28;98512.00;;;10.09;100.00
41260;BME280;26993;48.958;9.330;2022-09-12T04:27:14;98512.91;;;10.19;100.00
41260;BME280;26993;48.958;9.330;2022-09-12T04:30:02;98512.03;;;10.20;100.00
41260;BME280;26993;48.958;9.330;2022-09-12T04:32:49;98522.34;;;10.15;100.00
41260;BME280;26993;48.958;9.330;2022-09-12T04:35:35;98513.75;;;10.15;100.00
41260;BME280;26993;48.958;9.330;2022-09-12T04:38:23;98515.44;;;10.07;100.00
41260;BME280;26993;48.958;9.330;2022-09-12T04:41:11;98518.03;;;9.97;100.00
41260;BME280;26993;48.958;9.330;2022-09-12T04:43:59;98514.56;;;9.92;100.00
41260;BME280;26993;48.958;9.330;2022-09-12T04:46:47;98511.19;;;10.07;100.00
41260;BME280;26993;48.958;9.330;2022-09-12T04:49:34;98519.75;;;10.06;100.00
41260;BME280;26993;48.958;9.330;2022-09-12T04:52:20;98514.59;;;10.03;100.00
41260;BME280;26993;48.958;9.330;2022-09-12T04:55:09;98516.31;;;10.09;100.00
41260;BME280;26993;48.958;9.330;2022-09-12T04:57:55;98517.19;;;10.05;100.00
41260;BME280;26993;48.958;9.330;2022-09-12T05:00:42;98506.88;;;10.09;100.00
41260;BME280;26993;48.958;9.330;2022-09-12T05:03:29;98506.03;;;10.20;100.00
41260;BME280;26993;48.958;9.330;2022-09-12T05:06:20;98513.72;;;9.99;100.00
41260;BME280;26993;48.958;9.330;2022-09-12T05:09:09;98518.00;;;9.96;100.00
41260;BME280;26993;48.958;9.330;2022-09-12T05:11:58;98512.00;;;9.91;100.00
41260;BME280;26993;48.958;9.330;2022-09-12T05:14:45;98509.44;;;9.91;100.00
41260;BME280;26993;48.958;9.330;2022-09-12T05:17:31;98515.47;;;9.97;100.00
41260;BME280;26993;48.958;9.330;2022-09-12T05:20:18;98525.78;;;10.08;100.00
41260;BME280;26993;48.958;9.330;2022-09-12T05:23:05;98517.16;;;10.08;100.00
41260;BME280;26993;48.958;9.330;2022-09-12T05:25:53;98515.44;;;10.13;100.00
41260;BME280;26993;48.958;9.330;2022-09-12T05:28:42;98518.91;;;10.01;100.00
41260;BME280;26993;48.958;9.330;2022-09-12T05:31:29;98513.72;;;10.06;100.00
41260;BME280;26993;48.958;9.330;2022-09-12T05:34:15;98512.88;;;9.97;100.00
41260;BME280;26993;48.958;9.330;2022-09-12T05:37:02;98520.59;;;10.04;100.00
41260;BME280;26993;48.958;9.330;2022-09-12T05:39:49;98528.34;;;10.14;100.00
41260;BME280;26993;48.958;9.330;2022-09-12T05:42:36;98527.47;;;10.11;100.00
41260;BME280;26993;48.958;9.330;2022-09-12T05:45:24;98531.75;;;10.15;100.00
41260;BME280;26993;48.958;9.330;2022-09-12T05:48:11;98531.78;;;10.24;100.00
41260;BME280;26993;48.958;9.330;2022-09-12T05:50:59;98527.50;;;10.31;100.00
41260;BME280;26993;48.958;9.330;2022-09-12T05:53:48;98533.50;;;10.33;100.00
41260;BME280;26993;48.958;9.330;2022-09-12T05:56:38;98528.41;;;10.62;100.00
41260;BME280;26993;48.958;9.330;2022-09-12T05:59:25;98524.81;;;11.32;100.00
41260;BME280;26993;48.958;9.330;2022-09-12T06:02:14;98522.00;;;11.83;100.00
41260;BME280;26993;48.958;9.330;2022-09-12T06:05:00;98522.81;;;11.88;100.00
41260;BME280;26993;48.958;9.330;2022-09-12T06:07:47;98519.25;;;12.17;100.00
41260;BME280;26993;48.958;9.330;2022-09-12T06:10:34;98522.63;;;12.24;100.00
41260;BME280;26993;48.958;9.330;2022-09-12T06:13:20;98509.72;;;12.24;100.00
41260;BME280;26993;48.958;9.330;2022-09-12T06:16:09;98512.22;;;12.34;100.00
41260;BME280;26993;48.958;9.330;2022-09-12T06:18:59;98506.06;;;12.48;100.00
41260;BME280;26993;48.958;9.330;2022-09-12T06:21:46;98503.28;;;12.71;100.00
41260;BME280;26993;48.958;9.330;2022-09-12T06:24:33;98501.44;;;12.82;100.00
41260;BME280;26993;48.958;9.330;2022-09-12T06:27:20;98497.97;;;12.85;100.00
41260;BME280;26993;48.958;9.330;2022-09-12T06:30:08;98502.22;;;12.94;99.47
41260;BME280;26993;48.958;9.330;2022-09-12T06:32:54;98505.63;;;12.97;99.82
41260;BME280;26993;48.958;9.330;2022-09-12T06:35:43;98506.97;;;13.29;99.70
41260;BME280;26993;48.958;9.330;2022-09-12T06:38:30;98511.81;;;13.62;98.88
41260;BME280;26993;48.958;9.330;2022-09-12T06:41:16;98505.53;;;13.80;98.29
41260;BME280;26993;48.958;9.330;2022-09-12T06:44:03;98502.53;;;14.08;96.48
41260;BME280;26993;48.958;9.330;2022-09-12T06:46:51;98502.22;;;14.28;93.76
41260;BME280;26993;48.958;9.330;2022-09-12T06:49:38;98501.19;;;14.40;92.42
41260;BME280;26993;48.958;9.330;2022-09-12T06:52:26;98499.03;;;14.65;92.22
41260;BME280;26993;48.958;9.330;2022-09-12T06:55:13;98500.63;;;14.74;91.66
41260;BME280;26993;48.958;9.330;2022-09-12T06:58:00;98499.63;;;14.81;93.34
41260;BME280;26993;48.958;9.330;2022-09-12T07:00:47;98509.75;;;14.95;92.34
41260;BME280;26993;48.958;9.330;2022-09-12T07:03:34;98510.84;;;14.83;92.13
41260;BME280;26993;48.958;9.330;2022-09-12T07:06:23;98509.47;;;15.11;91.92
41260;BME280;26993;48.958;9.330;2022-09-12T07:09:12;98510.78;;;15.32;90.89
41260;BME280;26993;48.958;9.330;2022-09-12T07:12:00;98502.91;;;15.77;89.01
41260;BME280;26993;48.958;9.330;2022-09-12T07:14:48;98498.47;;;15.84;87.76
41260;BME280;26993;48.958;9.330;2022-09-12T07:17:35;98497.34;;;15.96;86.54
41260;BME280;26993;48.958;9.330;2022-09-12T07:20:21;98492.44;;;16.21;85.89
41260;BME280;26993;48.958;9.330;2022-09-12T07:23:08;98495.25;;;16.12;85.70
41260;BME280;26993;48.958;9.330;2022-09-12T07:25:59;98493.63;;;16.42;86.28
41260;BME280;26993;48.958;9.330;2022-09-12T07:28:49;98494.69;;;16.70;84.42
41260;BME280;26993;48.958;9.330;2022-09-12T07:31:36;98496.69;;;16.94;82.61
41260;BME280;26993;48.958;9.330;2022-09-12T07:34:23;98491.00;;;17.11;82.35
41260;BME280;26993;48.958;9.330;2022-09-12T07:37:09;98497.09;;;17.10;81.55
41260;BME280;26993;48.958;9.330;2022-09-12T07:39:56;98493.75;;;17.38;81.80
41260;BME280;26993;48.958;9.330;2022-09-12T07:42:45;98499.03;;;17.35;81.14
41260;BME280;26993;48.958;9.330;2022-09-12T07:45:32;98493.13;;;17.60;81.23
41260;BME280;26993;48.958;9.330;2022-09-12T07:48:18;98489.81;;;17.83;80.53
41260;BME280;26993;48.958;9.330;2022-09-12T07:51:07;98487.22;;;18.12;79.18
41260;BME280;26993;48.958;9.330;2022-09-12T07:53:54;98489.84;;;18.12;79.17
41260;BME280;26993;48.958;9.330;2022-09-12T07:56:40;98500.41;;;18.34;79.79
41260;BME280;26993;48.958;9.330;2022-09-12T07:59:28;98489.03;;;18.63;79.35
41260;BME280;26993;48.958;9.330;2022-09-12T08:02:15;98500.75;;;18.77;78.62
41260;BME280;26993;48.958;9.330;2022-09-12T08:05:02;98505.25;;;18.98;78.40
41260;BME280;26993;48.958;9.330;2022-09-12T08:07:48;98509.16;;;18.85;77.88
41260;BME280;26993;48.958;9.330;2022-09-12T08:10:35;98502.25;;;18.84;77.81
41260;BME280;26993;48.958;9.330;2022-09-12T08:13:22;98506.91;;;19.01;76.24
41260;BME280;26993;48.958;9.330;2022-09-12T08:16:12;98511.03;;;18.54;74.97
41260;BME280;26993;48.958;9.330;2022-09-12T08:19:00;98505.59;;;18.87;74.67
41260;BME280;26993;48.958;9.330;2022-09-12T08:21:47;98500.28;;;18.91;75.04
41260;BME280;26993;48.958;9.330;2022-09-12T08:24:33;98497.63;;;18.92;74.99
41260;BME280;26993;48.958;9.330;2022-09-12T08:27:20;98501.91;;;18.95;75.37
41260;BME280;26993;48.958;9.330;2022-09-12T08:30:07;98500.69;;;19.05;75.79
41260;BME280;26993;48.958;9.330;2022-09-12T08:32:56;98486.13;;;19.22;75.11
41260;BME280;26993;48.958;9.330;2022-09-12T08:35:43;98485.41;;;19.42;74.81
41260;BME280;26993;48.958;9.330;2022-09-12T08:38:30;98494.84;;;19.22;74.67
41260;BME280;26993;48.958;9.330;2022-09-12T08:41:23;98496.59;;;19.22;74.47
41260;BME280;26993;48.958;9.330;2022-09-12T08:44:39;98495.91;;;19.16;73.64
41260;BME280;26993;48.958;9.330;2022-09-12T08:47:30;98488.75;;;19.45;72.54
41260;BME280;26993;48.958;9.330;2022-09-12T08:50:21;98487.50;;;19.56;72.57
41260;BME280;26993;48.958;9.330;2022-09-12T08:53:12;98487.22;;;19.87;71.57
41260;BME280;26993;48.958;9.330;2022-09-12T08:55:59;98478.09;;;19.97;71.45
41260;BME280;26993;48.958;9.330;2022-09-12T08:58:46;98482.06;;;19.86;70.97
41260;BME280;26993;48.958;9.330;2022-09-12T09:01:36;98481.38;;;20.03;71.29
41260;BME280;26993;48.958;9.330;2022-09-12T09:04:39;98483.16;;;20.45;69.86
41260;BME280;26993;48.958;9.330;2022-09-12T09:07:47;98479.06;;;20.60;69.00
41260;BME280;26993;48.958;9.330;2022-09-12T09:10:46;98474.19;;;20.71;68.81
41260;BME280;26993;48.958;9.330;2022-09-12T09:13:45;98479.63;;;20.46;68.83
41260;BME280;26993;48.958;9.330;2022-09-12T09:16:55;98465.97;;;20.39;69.38
41260;BME280;26993;48.958;9.330;2022-09-12T09:19:46;98461.97;;;20.72;67.56
41260;BME280;26993;48.958;9.330;2022-09-12T09:22:41;98459.00;;;20.81;68.37
41260;BME280;26993;48.958;9.330;2022-09-12T09:25:37;98461.19;;;20.90;68.34
41260;BME280;26993;48.958;9.330;2022-09-12T09:28:31;98457.13;;;21.04;67.65
41260;BME280;26993;48.958;9.330;2022-09-12T09:31:22;98449.22;;;21.05;67.80
41260;BME280;26993;48.958;9.330;2022-09-12T09:34:13;98449.41;;;21.01;67.73
41260;BME280;26993;48.958;9.330;2022-09-12T09:37:06;98453.53;;;20.86;67.40
41260;BME280;26993;48.958;9.330;2022-09-12T09:40:04;98457.16;;;21.23;67.00
41260;BME280;26993;48.958;9.330;2022-09-12T09:43:02;98451.69;;;21.47;66.92
41260;BME280;26993;48.958;9.330;2022-09-12T09:45:52;98453.91;;;21.56;63.70
41260;BME280;26993;48.958;9.330;2022-09-12T09:48:40;98455.41;;;21.81;63.05
41260;BME280;26993;48.958;9.330;2022-09-12T09:51:33;98465.25;;;22.12;64.01
41260;BME280;26993;48.958;9.330;2022-09-12T09:54:23;98462.50;;;22.33;63.08
41260;BME280;26993;48.958;9.330;2022-09-12T09:57:45;98456.97;;;22.39;64.30
41260;BME280;26993;48.958;9.330;2022-09-12T10:00:34;98447.41;;;22.56;63.83
41260;BME280;26993;48.958;9.330;2022-09-12T10:03:29;98455.47;;;22.16;62.33
41260;BME280;26993;48.958;9.330;2022-09-12T10:06:25;98452.53;;;22.22;61.71
41260;BME280;26993;48.958;9.330;2022-09-12T10:09:24;98459.19;;;22.29;60.90
41260;BME280;26993;48.958;9.330;2022-09-12T10:12:25;98457.03;;;22.38;60.24
41260;BME280;26993;48.958;9.330;2022-09-12T10:15:18;98455.47;;;22.16;60.92
41260;BME280;26993;48.958;9.330;2022-09-12T10:18:05;98450.66;;;22.07;62.22
41260;BME280;26993;48.958;9.330;2022-09-12T10:20:52;98441.03;;;22.25;60.95
41260;BME280;26993;48.958;9.330;2022-09-12T10:23:39;98442.50;;;22.30;60.97
41260;BME280;26993;48.958;9.330;2022-09-12T10:26:31;98437.38;;;22.46;60.72
41260;BME280;26993;48.958;9.330;2022-09-12T10:29:23;98437.97;;;22.69;59.22
41260;BME280;26993;48.958;9.330;2022-09-12T10:32:19;98439.03;;;22.82;59.45
41260;BME280;26993;48.958;9.330;2022-09-12T10:35:16;98442.50;;;22.83;58.91
41260;BME280;26993;48.958;9.330;2022-09-12T10:38:05;98434.19;;;23.08;59.52
41260;BME280;26993;48.958;9.330;2022-09-12T10:40:57;98437.50;;;23.12;58.08
41260;BME280;26993;48.958;9.330;2022-09-12T10:43:45;98437.66;;;23.09;58.82
41260;BME280;26993;48.958;9.330;2022-09-12T10:46:32;98431.09;;;23.18;58.81
41260;BME280;26993;48.958;9.330;2022-09-12T10:49:25;98425.25;;;23.28;56.41
41260;BME280;26993;48.958;9.330;2022-09-12T10:52:17;98420.34;;;23.54;56.60
41260;BME280;26993;48.958;9.330;2022-09-12T10:55:11;98417.22;;;23.64;56.21
41260;BME280;26993;48.958;9.330;2022-09-12T10:58:09;98423.50;;;23.45;55.79
41260;BME280;26993;48.958;9.330;2022-09-12T11:01:07;98412.91;;;23.13;57.12
41260;BME280;26993;48.958;9.330;2022-09-12T11:04:09;98410.00;;;23.19;56.05
41260;BME280;26993;48.958;9.330;2022-09-12T11:07:15;98424.97;;;23.17;54.58
41260;BME280;26993;48.958;9.330;2022-09-12T11:10:16;98413.00;;;23.11;53.75
41260;BME280;26993;48.958;9.330;2022-09-12T11:13:16;98408.13;;;23.21;53.59
41260;BME280;26993;48.958;9.330;2022-09-12T11:16:15;98397.09;;;23.63;53.00
41260;BME280;26993;48.958;9.330;2022-09-12T11:19:27;98392.09;;;23.74;55.23
41260;BME280;26993;48.958;9.330;2022-09-12T11:22:30;98396.00;;;24.13;52.85
41260;BME280;26993;48.958;9.330;2022-09-12T11:25:27;98396.50;;;23.89;53.84
41260;BME280;26993;48.958;9.330;2022-09-12T11:28:27;98391.34;;;24.18;54.59
41260;BME280;26993;48.958;9.330;2022-09-12T11:31:44;98385.53;;;23.97;52.42
41260;BME280;26993;48.958;9.330;2022-09-12T11:34:43;98383.53;;;23.54;53.02
41260;BME280;26993;48.958;9.330;2022-09-12T11:37:45;98383.47;;;23.56;52.54
41260;BME280;26993;48.958;9.330;2022-09-12T11:40:39;98382.00;;;23.82;52.81
41260;BME280;26993;48.958;9.330;2022-09-12T11:43:34;98369.78;;;24.12;52.54
41260;BME280;26993;48.958;9.330;2022-09-12T11:46:28;98370.22;;;24.34;50.99
41260;BME280;26993;48.958;9.330;2022-09-12T11:49:24;98372.00;;;24.19;51.88
41260;BME280;26993;48.958;9.330;2022-09-12T11:52:14;98368.59;;;24.17;50.89
41260;BME280;26993;48.958;9.330;2022-09-12T11:55:05;98368.81;;;24.58;52.11
41260;BME280;26993;48.958;9.330;2022-09-12T11:57:56;98352.47;;;24.96;51.89
41260;BME280;26993;48.958;9.330;2022-09-12T12:00:46;98354.91;;;25.13;50.03
41260;BME280;26993;48.958;9.330;2022-09-12T12:03:38;98355.06;;;25.25;50.50
41260;BME280;26993;48.958;9.330;2022-09-12T12:06:30;98354.75;;;25.44;50.33
41260;BME280;26993;48.958;9.330;2022-09-12T12:09:17;98355.22;;;25.50;50.38
41260;BME280;26993;48.958;9.330;2022-09-12T12:12:10;98349.78;;;25.25;50.47
41260;BME280;26993;48.958;9.330;2022-09-12T12:15:00;98349.59;;;25.28;49.95
41260;BME280;26993;48.958;9.330;2022-09-12T12:17:59;98347.75;;;25.15;49.55
41260;BME280;26993;48.958;9.330;2022-09-12T12:20:46;98340.97;;;25.11;47.71
41260;BME280;26993;48.958;9.330;2022-09-12T12:23:34;98341.56;;;25.16;49.66
41260;BME280;26993;48.958;9.330;2022-09-12T12:26:42;98337.25;;;25.28;45.61
41260;BME280;26993;48.958;9.330;2022-09-12T12:29:42;98331.75;;;25.04;46.37
41260;BME280;26993;48.958;9.330;2022-09-12T12:32:29;98339.16;;;25.41;49.65
41260;BME280;26993;48.958;9.330;2022-09-12T12:35:38;98332.31;;;25.78;48.62
41260;BME280;26993;48.958;9.330;2022-09-12T12:38:27;98319.59;;;25.58;48.81
41260;BME280;26993;48.958;9.330;2022-09-12T12:41:41;98321.53;;;25.41;48.99
41260;BME280;26993;48.958;9.330;2022-09-12T12:44:49;98322.72;;;25.35;49.43
41260;BME280;26993;48.958;9.330;2022-09-12T12:47:40;98321.97;;;25.06;49.41
41260;BME280;26993;48.958;9.330;2022-09-12T12:50:29;98322.13;;;24.76;49.41
41260;BME280;26993;48.958;9.330;2022-09-12T12:53:20;98320.06;;;24.66;49.05
41260;BME280;26993;48.958;9.330;2022-09-12T12:56:25;98316.75;;;24.92;49.07
41260;BME280;26993;48.958;9.330;2022-09-12T12:59:19;98304.38;;;25.07;49.63
41260;BME280;26993;48.958;9.330;2022-09-12T13:02:18;98311.66;;;24.89;48.02
41260;BME280;26993;48.958;9.330;2022-09-12T13:05:16;98301.66;;;24.65;48.62
41260;BME280;26993;48.958;9.330;2022-09-12T13:08:07;98307.06;;;24.78;48.04
41260;BME280;26993;48.958;9.330;2022-09-12T13:10:58;98295.41;;;24.67;48.52
41260;BME280;26993;48.958;9.330;2022-09-12T13:13:49;98293.22;;;24.74;48.17
41260;BME280;26993;48.958;9.330;2022-09-12T13:16:52;98289.47;;;24.64;49.09
41260;BME280;26993;48.958;9.330;2022-09-12T13:19:41;98297.13;;;24.68;49.07
41260;BME280;26993;48.958;9.330;2022-09-12T13:22:38;98297.13;;;24.68;47.11
41260;BME280;26993;48.958;9.330;2022-09-12T13:25:28;98293.69;;;24.52;47.45
41260;BME280;26993;48.958;9.330;2022-09-12T13:28:16;98286.72;;;24.65;48.12
41260;BME280;26993;48.958;9.330;2022-09-12T13:31:11;98287.41;;;24.69;49.39
41260;BME280;26993;48.958;9.330;2022-09-12T13:34:00;98275.22;;;24.95;47.22
41260;BME280;26993;48.958;9.330;2022-09-12T13:37:14;98273.13;;;25.00;46.65
41260;BME280;26993;48.958;9.330;2022-09-12T13:40:17;98269.97;;;24.95;45.85
41260;BME280;26993;48.958;9.330;2022-09-12T13:43:12;98263.00;;;24.94;46.68
41260;BME280;26993;48.958;9.330;2022-09-12T13:46:00;98264.19;;;25.03;46.98
41260;BME280;26993;48.958;9.330;2022-09-12T13:48:47;98260.81;;;25.01;46.70
41260;BME280;26993;48.958;9.330;2022-09-12T13:51:34;98260.59;;;25.04;46.69
41260;BME280;26993;48.958;9.330;2022-09-12T13:54:22;98252.63;;;25.06;47.50
41260;BME280;26993;48.958;9.330;2022-09-12T13:57:26;98250.97;;;24.90;47.00
41260;BME280;26993;48.958;9.330;2022-09-12T14:00:16;98252.84;;;24.88;46.84
41260;BME280;26993;48.958;9.330;2022-09-12T14:03:24;98239.69;;;24.88;46.95
41260;BME280;26993;48.958;9.330;2022-09-12T14:06:34;98239.56;;;24.90;48.85
41260;BME280;26993;48.958;9.330;2022-09-12T14:09:26;98234.59;;;24.85;46.76
41260;BME280;26993;48.958;9.330;2022-09-12T14:12:23;98235.19;;;25.03;47.30
41260;BME280;26993;48.958;9.330;2022-09-12T14:15:16;98236.41;;;25.12;47.26
41260;BME280;26993;48.958;9.330;2022-09-12T14:18:06;98227.03;;;25.21;47.89
41260;BME280;26993;48.958;9.330;2022-09-12T14:20:54;98232.84;;;24.98;46.94
41260;BME280;26993;48.958;9.330;2022-09-12T14:23:45;98223.00;;;24.87;46.04
41260;BME280;26993;48.958;9.330;2022-09-12T14:26:35;98224.84;;;24.58;47.06
41260;BME280;26993;48.958;9.330;2022-09-12T14:29:25;98228.97;;;24.62;47.84
41260;BME280;26993;48.958;9.330;2022-09-12T14:32:21;98230.28;;;24.69;46.74
41260;BME280;26993;48.958;9.330;2022-09-12T14:35:18;98229.16;;;24.59;47.47
41260;BME280;26993;48.958;9.330;2022-09-12T14:38:07;98220.97;;;24.78;46.30
41260;BME280;26993;48.958;9.330;2022-09-12T14:41:00;98216.91;;;24.87;47.10
41260;BME280;26993;48.958;9.330;2022-09-12T14:43:53;98217.69;;;25.02;46.73
41260;BME280;26993;48.958;9.330;2022-09-12T14:46:41;98210.88;;;24.85;46.92
41260;BME280;26993;48.958;9.330;2022-09-12T14:49:32;98214.91;;;24.91;46.69
41260;BME280;26993;48.958;9.330;2022-09-12T14:52:23;98208.25;;;24.85;46.95
41260;BME280;26993;48.958;9.330;2022-09-12T14:55:26;98215.03;;;24.89;46.53
41260;BME280;26993;48.958;9.330;2022-09-12T14:58:15;98211.63;;;24.87;47.76
41260;BME280;26993;48.958;9.330;2022-09-12T15:01:25;98207.91;;;25.04;46.97
41260;BME280;26993;48.958;9.330;2022-09-12T15:04:38;98204.84;;;25.10;46.84
41260;BME280;26993;48.958;9.330;2022-09-12T15:07:31;98205.34;;;24.75;46.60